sensor_id;sensor_type;location;lat;lon;timestamp;P1;durP1;ratioP1;P2;durP2;ratioP2
11191;SDS011;5652;48.406;10.820;2023-05-10T00:00:32;3.85;;;3.03;;
11191;SDS011;5652;48.406;10.820;2023-05-10T00:02:59;3.95;;;3.03;;
11191;SDS011;5652;48.406;10.820;2023-05-10T00:05:26;7.53;;;2.75;;
11191;SDS011;5652;48.406;10.820;2023-05-10T00:07:54;3.90;;;2.80;;
11191;SDS011;5652;48.406;10.820;2023-05-10T00:10:21;3.30;;;2.92;;
11191;SDS011;5652;48.406;10.820;2023-05-10T00:12:48;5.15;;;2.45;;
11191;SDS011;5652;48.406;10.820;2023-05-10T00:15:16;4.63;;;2.85;;
11191;SDS011;5652;48.406;10.820;2023-05-10T00:17:43;3.95;;;3.13;;
11191;SDS011;5652;48.406;10.820;2023-05-10T00:20:11;3.30;;;2.78;;
11191;SDS011;5652;48.406;10.820;2023-05-10T00:22:38;4.13;;;3.03;;
11191;SDS011;5652;48.406;10.820;2023-05-10T00:25:06;4.35;;;3.28;;
11191;SDS011;5652;48.406;10.820;2023-05-10T00:27:33;3.67;;;3.10;;
11191;SDS011;5652;48.406;10.820;2023-05-10T00:30:00;4.07;;;3.40;;
11191;SDS011;5652;48.406;10.820;2023-05-10T00:32:28;4.30;;;3.00;;
11191;SDS011;5652;48.406;10.820;2023-05-10T00:34:55;4.80;;;2.85;;
11191;SDS011;5652;48.406;10.820;2023-05-10T00:37:23;4.20;;;3.17;;
11191;SDS011;5652;48.406;10.820;2023-05-10T00:39:50;4.63;;;2.75;;
11191;SDS011;5652;48.406;10.820;2023-05-10T00:42:19;3.70;;;2.85;;
11191;SDS011;5652;48.406;10.820;2023-05-10T00:44:47;3.60;;;2.80;;
11191;SDS011;5652;48.406;10.820;2023-05-10T00:47:14;4.32;;;3.20;;
11191;SDS011;5652;48.406;10.820;2023-05-10T00:49:43;4.10;;;2.80;;
11191;SDS011;5652;48.406;10.820;2023-05-10T00:52:11;4.32;;;2.70;;
11191;SDS011;5652;48.406;10.820;2023-05-10T00:54:38;3.60;;;2.50;;
11191;SDS011;5652;48.406;10.820;2023-05-10T00:57:05;3.60;;;2.60;;
11191;SDS011;5652;48.406;10.820;2023-05-10T00:59:32;3.63;;;2.60;;
11191;SDS011;5652;48.406;10.820;2023-05-10T01:01:59;3.53;;;2.70;;
11191;SDS011;5652;48.406;10.820;2023-05-10T01:04:26;2.60;;;2.20;;
11191;SDS011;5652;48.406;10.820;2023-05-10T01:06:55;3.95;;;2.13;;
11191;SDS011;5652;48.406;10.820;2023-05-10T01:09:22;4.15;;;2.50;;
11191;SDS011;5652;48.406;10.820;2023-05-10T01:11:51;4.05;;;2.65;;
11191;SDS011;5652;48.406;10.820;2023-05-10T01:14:18;2.83;;;2.20;;
11191;SDS011;5652;48.406;10.820;2023-05-10T01:16:46;4.20;;;2.35;;
11191;SDS011;5652;48.406;10.820;2023-05-10T01:19:16;3.65;;;2.42;;
11191;SDS011;5652;48.406;10.820;2023-05-10T01:21:47;2.90;;;2.30;;
11191;SDS011;5652;48.406;10.820;2023-05-10T01:27:15;2.63;;;2.13;;
11191;SDS011;5652;48.406;10.820;2023-05-10T01:29:57;2.55;;;2.10;;
11191;SDS011;5652;48.406;10.820;2023-05-10T01:32:29;2.83;;;2.00;;
11191;SDS011;5652;48.406;10.820;2023-05-10T01:34:59;4.00;;;2.10;;
11191;SDS011;5652;48.406;10.820;2023-05-10T01:37:29;2.17;;;1.97;;
11191;SDS011;5652;48.406;10.820;2023-05-10T01:39:59;3.10;;;2.10;;
11191;SDS011;5652;48.406;10.820;2023-05-10T01:42:28;2.40;;;2.10;;
11191;SDS011;5652;48.406;10.820;2023-05-10T01:45:00;2.30;;;2.10;;
11191;SDS011;5652;48.406;10.820;2023-05-10T01:47:30;2.40;;;2.00;;
11191;SDS011;5652;48.406;10.820;2023-05-10T01:50:01;1.55;;;1.40;;
11191;SDS011;5652;48.406;10.820;2023-05-10T01:52:30;2.72;;;1.90;;
11191;SDS011;5652;48.406;10.820;2023-05-10T01:55:00;2.30;;;1.90;;
11191;SDS011;5652;48.406;10.820;2023-05-10T01:57:31;2.78;;;1.48;;
11191;SDS011;5652;48.406;10.820;2023-05-10T01:59:59;2.22;;;1.90;;
11191;SDS011;5652;48.406;10.820;2023-05-10T02:02:27;1.90;;;1.60;;
11191;SDS011;5652;48.406;10.820;2023-05-10T02:04:57;1.85;;;1.50;;
11191;SDS011;5652;48.406;10.820;2023-05-10T02:07:25;1.87;;;1.53;;
11191;SDS011;5652;48.406;10.820;2023-05-10T02:09:53;2.42;;;1.95;;
11191;SDS011;5652;48.406;10.820;2023-05-10T02:12:22;2.35;;;1.90;;
11191;SDS011;5652;48.406;10.820;2023-05-10T02:14:50;2.15;;;1.70;;
11191;SDS011;5652;48.406;10.820;2023-05-10T02:17:17;1.98;;;1.60;;
11191;SDS011;5652;48.406;10.820;2023-05-10T02:19:45;1.80;;;1.63;;
11191;SDS011;5652;48.406;10.820;2023-05-10T02:22:15;1.50;;;1.40;;
11191;SDS011;5652;48.406;10.820;2023-05-10T02:24:43;1.30;;;1.20;;
11191;SDS011;5652;48.406;10.820;2023-05-10T02:27:11;1.60;;;1.50;;
11191;SDS011;5652;48.406;10.820;2023-05-10T02:29:39;1.70;;;1.60;;
11191;SDS011;5652;48.406;10.820;2023-05-10T02:32:06;2.25;;;1.40;;
11191;SDS011;5652;48.406;10.820;2023-05-10T02:34:36;1.50;;;1.30;;
11191;SDS011;5652;48.406;10.820;2023-05-10T02:37:04;1.58;;;1.30;;
11191;SDS011;5652;48.406;10.820;2023-05-10T02:39:33;1.33;;;1.20;;
11191;SDS011;5652;48.406;10.820;2023-05-10T02:42:00;1.60;;;1.40;;
11191;SDS011;5652;48.406;10.820;2023-05-10T02:44:28;1.25;;;1.10;;
11191;SDS011;5652;48.406;10.820;2023-05-10T02:46:56;1.55;;;1.30;;
11191;SDS011;5652;48.406;10.820;2023-05-10T02:49:24;1.88;;;1.20;;
11191;SDS011;5652;48.406;10.820;2023-05-10T02:51:51;1.33;;;1.20;;
11191;SDS011;5652;48.406;10.820;2023-05-10T02:54:24;1.23;;;1.13;;
11191;SDS011;5652;48.406;10.820;2023-05-10T02:56:56;1.50;;;1.10;;
11191;SDS011;5652;48.406;10.820;2023-05-10T02:59:24;1.42;;;1.10;;
11191;SDS011;5652;48.406;10.820;2023-05-10T03:01:51;1.38;;;1.10;;
11191;SDS011;5652;48.406;10.820;2023-05-10T03:04:18;1.90;;;1.20;;
11191;SDS011;5652;48.406;10.820;2023-05-10T03:06:45;1.20;;;1.10;;
11191;SDS011;5652;48.406;10.820;2023-05-10T03:09:13;1.50;;;1.10;;
11191;SDS011;5652;48.406;10.820;2023-05-10T03:11:43;1.00;;;0.90;;
11191;SDS011;5652;48.406;10.820;2023-05-10T03:14:21;3.10;;;1.10;;
11191;SDS011;5652;48.406;10.820;2023-05-10T03:16:52;1.20;;;1.00;;
11191;SDS011;5652;48.406;10.820;2023-05-10T03:19:24;1.10;;;1.00;;
11191;SDS011;5652;48.406;10.820;2023-05-10T03:21:52;1.00;;;0.90;;
11191;SDS011;5652;48.406;10.820;2023-05-10T03:24:20;0.80;;;0.80;;
11191;SDS011;5652;48.406;10.820;2023-05-10T03:26:48;1.05;;;0.90;;
11191;SDS011;5652;48.406;10.820;2023-05-10T03:29:15;0.90;;;0.70;;
11191;SDS011;5652;48.406;10.820;2023-05-10T03:31:44;0.60;;;0.60;;
11191;SDS011;5652;48.406;10.820;2023-05-10T03:34:11;2.33;;;1.00;;
11191;SDS011;5652;48.406;10.820;2023-05-10T03:36:38;0.90;;;0.90;;
11191;SDS011;5652;48.406;10.820;2023-05-10T03:39:05;0.57;;;0.57;;
11191;SDS011;5652;48.406;10.820;2023-05-10T03:41:33;0.90;;;0.80;;
11191;SDS011;5652;48.406;10.820;2023-05-10T03:44:00;0.70;;;0.65;;
11191;SDS011;5652;48.406;10.820;2023-05-10T03:46:27;1.23;;;0.60;;
11191;SDS011;5652;48.406;10.820;2023-05-10T03:48:55;0.63;;;0.40;;
11191;SDS011;5652;48.406;10.820;2023-05-10T03:51:22;0.50;;;0.50;;
11191;SDS011;5652;48.406;10.820;2023-05-10T03:53:53;1.10;;;0.50;;
11191;SDS011;5652;48.406;10.820;2023-05-10T03:56:20;0.60;;;0.60;;
11191;SDS011;5652;48.406;10.820;2023-05-10T03:58:47;1.60;;;0.70;;
11191;SDS011;5652;48.406;10.820;2023-05-10T04:01:14;0.60;;;0.60;;
11191;SDS011;5652;48.406;10.820;2023-05-10T04:03:41;0.50;;;0.50;;
11191;SDS011;5652;48.406;10.820;2023-05-10T04:06:10;0.60;;;0.60;;
11191;SDS011;5652;48.406;10.820;2023-05-10T04:08:37;2.08;;;0.70;;
11191;SDS011;5652;48.406;10.820;2023-05-10T04:11:04;1.10;;;0.65;;
11191;SDS011;5652;48.406;10.820;2023-05-10T04:13:32;3.97;;;0.80;;
11191;SDS011;5652;48.406;10.820;2023-05-10T04:15:59;0.70;;;0.70;;
11191;SDS011;5652;48.406;10.820;2023-05-10T04:18:27;1.60;;;0.80;;
11191;SDS011;5652;48.406;10.820;2023-05-10T04:20:54;2.00;;;0.90;;
11191;SDS011;5652;48.406;10.820;2023-05-10T04:23:22;1.50;;;0.80;;
11191;SDS011;5652;48.406;10.820;2023-05-10T04:25:49;0.70;;;0.70;;
11191;SDS011;5652;48.406;10.820;2023-05-10T04:28:16;1.42;;;0.88;;
11191;SDS011;5652;48.406;10.820;2023-05-10T04:30:43;0.80;;;0.80;;
11191;SDS011;5652;48.406;10.820;2023-05-10T04:33:10;0.80;;;0.80;;
11191;SDS011;5652;48.406;10.820;2023-05-10T04:35:38;0.80;;;0.80;;
11191;SDS011;5652;48.406;10.820;2023-05-10T04:38:05;1.30;;;0.90;;
11191;SDS011;5652;48.406;10.820;2023-05-10T04:40:35;1.48;;;0.80;;
11191;SDS011;5652;48.406;10.820;2023-05-10T04:43:02;0.90;;;0.70;;
11191;SDS011;5652;48.406;10.820;2023-05-10T04:45:29;1.13;;;1.00;;
11191;SDS011;5652;48.406;10.820;2023-05-10T04:47:56;1.05;;;0.80;;
11191;SDS011;5652;48.406;10.820;2023-05-10T04:50:23;1.73;;;0.80;;
11191;SDS011;5652;48.406;10.820;2023-05-10T04:52:50;1.55;;;0.80;;
11191;SDS011;5652;48.406;10.820;2023-05-10T04:55:18;1.60;;;1.50;;
11191;SDS011;5652;48.406;10.820;2023-05-10T04:57:47;1.37;;;1.00;;
11191;SDS011;5652;48.406;10.820;2023-05-10T05:00:14;0.85;;;0.85;;
11191;SDS011;5652;48.406;10.820;2023-05-10T05:02:42;1.95;;;0.70;;
11191;SDS011;5652;48.406;10.820;2023-05-10T05:05:10;1.85;;;0.70;;
11191;SDS011;5652;48.406;10.820;2023-05-10T05:07:37;1.00;;;0.90;;
11191;SDS011;5652;48.406;10.820;2023-05-10T05:10:04;1.00;;;0.90;;
11191;SDS011;5652;48.406;10.820;2023-05-10T05:12:32;0.98;;;0.90;;
11191;SDS011;5652;48.406;10.820;2023-05-10T05:15:00;0.73;;;0.73;;
11191;SDS011;5652;48.406;10.820;2023-05-10T05:17:27;1.70;;;1.00;;
11191;SDS011;5652;48.406;10.820;2023-05-10T05:19:57;0.95;;;0.80;;
11191;SDS011;5652;48.406;10.820;2023-05-10T05:22:24;0.80;;;0.80;;
11191;SDS011;5652;48.406;10.820;2023-05-10T05:24:53;1.00;;;0.80;;
11191;SDS011;5652;48.406;10.820;2023-05-10T05:27:20;2.15;;;0.70;;
11191;SDS011;5652;48.406;10.820;2023-05-10T05:29:49;2.10;;;0.80;;
11191;SDS011;5652;48.406;10.820;2023-05-10T05:32:17;0.80;;;0.70;;
11191;SDS011;5652;48.406;10.820;2023-05-10T05:34:44;0.80;;;0.80;;
11191;SDS011;5652;48.406;10.820;2023-05-10T05:37:12;0.93;;;0.87;;
11191;SDS011;5652;48.406;10.820;2023-05-10T05:39:40;1.00;;;0.85;;
11191;SDS011;5652;48.406;10.820;2023-05-10T05:42:07;1.52;;;0.60;;
11191;SDS011;5652;48.406;10.820;2023-05-10T05:44:34;0.98;;;0.88;;
11191;SDS011;5652;48.406;10.820;2023-05-10T05:47:01;1.30;;;0.95;;
11191;SDS011;5652;48.406;10.820;2023-05-10T05:49:30;1.10;;;0.80;;
11191;SDS011;5652;48.406;10.820;2023-05-10T05:51:58;1.65;;;1.10;;
11191;SDS011;5652;48.406;10.820;2023-05-10T05:54:26;1.50;;;1.00;;
11191;SDS011;5652;48.406;10.820;2023-05-10T05:56:53;1.20;;;1.00;;
11191;SDS011;5652;48.406;10.820;2023-05-10T05:59:21;0.80;;;0.80;;
11191;SDS011;5652;48.406;10.820;2023-05-10T06:01:48;1.40;;;0.85;;
11191;SDS011;5652;48.406;10.820;2023-05-10T06:04:16;1.63;;;1.00;;
11191;SDS011;5652;48.406;10.820;2023-05-10T06:06:44;1.20;;;0.98;;
11191;SDS011;5652;48.406;10.820;2023-05-10T06:09:11;3.22;;;1.00;;
11191;SDS011;5652;48.406;10.820;2023-05-10T06:11:39;1.30;;;0.90;;
11191;SDS011;5652;48.406;10.820;2023-05-10T06:14:06;3.20;;;1.20;;
11191;SDS011;5652;48.406;10.820;2023-05-10T06:16:33;1.10;;;0.93;;
11191;SDS011;5652;48.406;10.820;2023-05-10T06:19:00;1.10;;;0.80;;
11191;SDS011;5652;48.406;10.820;2023-05-10T06:21:27;1.30;;;1.00;;
11191;SDS011;5652;48.406;10.820;2023-05-10T06:23:56;1.03;;;0.80;;
11191;SDS011;5652;48.406;10.820;2023-05-10T06:26:23;0.90;;;0.90;;
11191;SDS011;5652;48.406;10.820;2023-05-10T06:28:50;1.10;;;1.00;;
11191;SDS011;5652;48.406;10.820;2023-05-10T06:31:17;2.35;;;0.90;;
11191;SDS011;5652;48.406;10.820;2023-05-10T06:33:44;2.70;;;0.95;;
11191;SDS011;5652;48.406;10.820;2023-05-10T06:36:12;1.57;;;0.80;;
11191;SDS011;5652;48.406;10.820;2023-05-10T06:38:39;1.48;;;0.90;;
11191;SDS011;5652;48.406;10.820;2023-05-10T06:41:08;2.50;;;1.07;;
11191;SDS011;5652;48.406;10.820;2023-05-10T06:43:35;1.00;;;0.90;;
11191;SDS011;5652;48.406;10.820;2023-05-10T06:46:04;1.10;;;0.88;;
11191;SDS011;5652;48.406;10.820;2023-05-10T06:48:32;0.93;;;0.93;;
11191;SDS011;5652;48.406;10.820;2023-05-10T06:50:59;1.77;;;0.90;;
11191;SDS011;5652;48.406;10.820;2023-05-10T06:53:27;2.65;;;0.90;;
11191;SDS011;5652;48.406;10.820;2023-05-10T06:55:54;1.30;;;1.00;;
11191;SDS011;5652;48.406;10.820;2023-05-10T06:58:22;0.83;;;0.83;;
11191;SDS011;5652;48.406;10.820;2023-05-10T07:00:49;1.17;;;0.70;;
11191;SDS011;5652;48.406;10.820;2023-05-10T07:03:16;1.00;;;0.90;;
11191;SDS011;5652;48.406;10.820;2023-05-10T07:05:43;0.60;;;0.60;;
11191;SDS011;5652;48.406;10.820;2023-05-10T07:08:11;1.10;;;0.90;;
11191;SDS011;5652;48.406;10.820;2023-05-10T07:10:40;3.28;;;1.00;;
11191;SDS011;5652;48.406;10.820;2023-05-10T07:13:07;2.90;;;1.02;;
11191;SDS011;5652;48.406;10.820;2023-05-10T07:15:37;0.70;;;0.70;;
11191;SDS011;5652;48.406;10.820;2023-05-10T07:18:04;2.20;;;1.08;;
11191;SDS011;5652;48.406;10.820;2023-05-10T07:20:32;0.98;;;0.90;;
11191;SDS011;5652;48.406;10.820;2023-05-10T07:22:59;1.00;;;0.90;;
11191;SDS011;5652;48.406;10.820;2023-05-10T07:25:26;1.02;;;0.93;;
11191;SDS011;5652;48.406;10.820;2023-05-10T07:27:53;0.98;;;0.90;;
11191;SDS011;5652;48.406;10.820;2023-05-10T07:30:20;2.38;;;1.10;;
11191;SDS011;5652;48.406;10.820;2023-05-10T07:32:49;3.13;;;0.98;;
11191;SDS011;5652;48.406;10.820;2023-05-10T07:35:16;2.13;;;0.87;;
11191;SDS011;5652;48.406;10.820;2023-05-10T07:37:43;1.00;;;0.90;;
11191;SDS011;5652;48.406;10.820;2023-05-10T07:40:10;1.10;;;1.00;;
11191;SDS011;5652;48.406;10.820;2023-05-10T07:42:38;1.10;;;0.90;;
11191;SDS011;5652;48.406;10.820;2023-05-10T07:45:05;1.20;;;0.70;;
11191;SDS011;5652;48.406;10.820;2023-05-10T07:47:33;0.70;;;0.60;;
11191;SDS011;5652;48.406;10.820;2023-05-10T07:50:01;2.05;;;0.80;;
11191;SDS011;5652;48.406;10.820;2023-05-10T07:52:29;0.60;;;0.60;;
11191;SDS011;5652;48.406;10.820;2023-05-10T07:54:56;1.60;;;0.80;;
11191;SDS011;5652;48.406;10.820;2023-05-10T07:57:23;1.50;;;0.80;;
11191;SDS011;5652;48.406;10.820;2023-05-10T07:59:50;1.75;;;0.98;;
11191;SDS011;5652;48.406;10.820;2023-05-10T08:02:17;0.70;;;0.70;;
11191;SDS011;5652;48.406;10.820;2023-05-10T08:04:44;0.80;;;0.80;;
11191;SDS011;5652;48.406;10.820;2023-05-10T08:07:13;0.80;;;0.80;;
11191;SDS011;5652;48.406;10.820;2023-05-10T08:09:40;1.13;;;1.00;;
11191;SDS011;5652;48.406;10.820;2023-05-10T08:12:07;1.73;;;0.82;;
11191;SDS011;5652;48.406;10.820;2023-05-10T08:14:34;1.02;;;0.85;;
11191;SDS011;5652;48.406;10.820;2023-05-10T08:17:02;1.30;;;0.90;;
11191;SDS011;5652;48.406;10.820;2023-05-10T08:19:29;1.20;;;0.80;;
11191;SDS011;5652;48.406;10.820;2023-05-10T08:21:57;1.80;;;0.93;;
11191;SDS011;5652;48.406;10.820;2023-05-10T08:24:26;1.30;;;0.95;;
11191;SDS011;5652;48.406;10.820;2023-05-10T08:26:53;1.53;;;0.90;;
11191;SDS011;5652;48.406;10.820;2023-05-10T08:29:20;0.90;;;0.90;;
11191;SDS011;5652;48.406;10.820;2023-05-10T08:31:47;3.10;;;0.80;;
11191;SDS011;5652;48.406;10.820;2023-05-10T08:34:14;1.05;;;0.93;;
11191;SDS011;5652;48.406;10.820;2023-05-10T08:36:41;2.20;;;1.07;;
11191;SDS011;5652;48.406;10.820;2023-05-10T08:39:08;1.60;;;1.08;;
11191;SDS011;5652;48.406;10.820;2023-05-10T08:41:37;3.80;;;1.00;;
11191;SDS011;5652;48.406;10.820;2023-05-10T08:44:05;1.98;;;1.00;;
11191;SDS011;5652;48.406;10.820;2023-05-10T08:46:34;1.98;;;1.00;;
11191;SDS011;5652;48.406;10.820;2023-05-10T08:49:05;1.05;;;0.80;;
11191;SDS011;5652;48.406;10.820;2023-05-10T08:51:35;1.90;;;1.00;;
11191;SDS011;5652;48.406;10.820;2023-05-10T08:54:02;1.73;;;1.10;;
11191;SDS011;5652;48.406;10.820;2023-05-10T08:56:30;1.50;;;1.02;;
11191;SDS011;5652;48.406;10.820;2023-05-10T08:58:59;1.25;;;1.00;;
11191;SDS011;5652;48.406;10.820;2023-05-10T09:01:26;3.05;;;1.42;;
11191;SDS011;5652;48.406;10.820;2023-05-10T09:03:53;1.42;;;0.90;;
11191;SDS011;5652;48.406;10.820;2023-05-10T09:06:20;3.10;;;1.10;;
11191;SDS011;5652;48.406;10.820;2023-05-10T09:08:48;1.42;;;1.00;;
11191;SDS011;5652;48.406;10.820;2023-05-10T09:11:15;2.23;;;0.97;;
11191;SDS011;5652;48.406;10.820;2023-05-10T09:13:43;2.97;;;1.15;;
11191;SDS011;5652;48.406;10.820;2023-05-10T09:16:11;3.35;;;1.20;;
11191;SDS011;5652;48.406;10.820;2023-05-10T09:18:39;2.90;;;1.10;;
11191;SDS011;5652;48.406;10.820;2023-05-10T09:21:06;1.50;;;1.20;;
11191;SDS011;5652;48.406;10.820;2023-05-10T09:23:33;1.30;;;1.20;;
11191;SDS011;5652;48.406;10.820;2023-05-10T09:26:03;2.23;;;1.13;;
11191;SDS011;5652;48.406;10.820;2023-05-10T09:28:31;1.90;;;1.10;;
11191;SDS011;5652;48.406;10.820;2023-05-10T09:30:58;1.63;;;1.02;;
11191;SDS011;5652;48.406;10.820;2023-05-10T09:33:27;2.72;;;1.10;;
11191;SDS011;5652;48.406;10.820;2023-05-10T09:35:54;1.80;;;1.13;;
11191;SDS011;5652;48.406;10.820;2023-05-10T09:38:21;1.90;;;1.38;;
11191;SDS011;5652;48.406;10.820;2023-05-10T09:40:51;2.50;;;1.10;;
11191;SDS011;5652;48.406;10.820;2023-05-10T09:43:20;2.78;;;1.30;;
11191;SDS011;5652;48.406;10.820;2023-05-10T09:45:48;1.40;;;1.13;;
11191;SDS011;5652;48.406;10.820;2023-05-10T09:48:15;1.40;;;1.20;;
11191;SDS011;5652;48.406;10.820;2023-05-10T09:50:44;1.70;;;1.30;;
11191;SDS011;5652;48.406;10.820;2023-05-10T09:53:12;1.25;;;0.93;;
11191;SDS011;5652;48.406;10.820;2023-05-10T09:55:42;2.28;;;0.95;;
11191;SDS011;5652;48.406;10.820;2023-05-10T09:58:11;1.30;;;0.93;;
11191;SDS011;5652;48.406;10.820;2023-05-10T10:00:39;2.70;;;1.40;;
11191;SDS011;5652;48.406;10.820;2023-05-10T10:03:11;0.95;;;0.85;;
11191;SDS011;5652;48.406;10.820;2023-05-10T10:05:39;1.88;;;1.20;;
11191;SDS011;5652;48.406;10.820;2023-05-10T10:08:08;1.45;;;1.20;;
11191;SDS011;5652;48.406;10.820;2023-05-10T10:10:36;2.22;;;1.40;;
11191;SDS011;5652;48.406;10.820;2023-05-10T10:13:03;2.15;;;1.30;;
11191;SDS011;5652;48.406;10.820;2023-05-10T10:15:31;1.20;;;1.10;;
11191;SDS011;5652;48.406;10.820;2023-05-10T10:17:59;1.58;;;1.30;;
11191;SDS011;5652;48.406;10.820;2023-05-10T10:20:26;1.35;;;1.20;;
11191;SDS011;5652;48.406;10.820;2023-05-10T10:22:53;2.40;;;1.15;;
11191;SDS011;5652;48.406;10.820;2023-05-10T10:25:22;1.00;;;0.90;;
11191;SDS011;5652;48.406;10.820;2023-05-10T10:27:55;1.40;;;1.00;;
11191;SDS011;5652;48.406;10.820;2023-05-10T10:30:27;1.15;;;0.80;;
11191;SDS011;5652;48.406;10.820;2023-05-10T10:33:01;0.85;;;0.85;;
11191;SDS011;5652;48.406;10.820;2023-05-10T10:35:33;1.10;;;0.93;;
11191;SDS011;5652;48.406;10.820;2023-05-10T10:38:01;1.38;;;0.90;;
11191;SDS011;5652;48.406;10.820;2023-05-10T10:40:30;1.48;;;1.00;;
11191;SDS011;5652;48.406;10.820;2023-05-10T10:42:58;2.47;;;1.40;;
11191;SDS011;5652;48.406;10.820;2023-05-10T10:45:47;2.07;;;0.90;;
11191;SDS011;5652;48.406;10.820;2023-05-10T10:48:27;1.45;;;0.90;;
11191;SDS011;5652;48.406;10.820;2023-05-10T10:50:57;1.00;;;0.90;;
11191;SDS011;5652;48.406;10.820;2023-05-10T10:53:27;2.67;;;0.95;;
11191;SDS011;5652;48.406;10.820;2023-05-10T10:56:07;1.30;;;1.05;;
11191;SDS011;5652;48.406;10.820;2023-05-10T10:58:35;1.75;;;1.10;;
11191;SDS011;5652;48.406;10.820;2023-05-10T11:01:10;1.38;;;1.00;;
11191;SDS011;5652;48.406;10.820;2023-05-10T11:03:37;1.97;;;1.20;;
11191;SDS011;5652;48.406;10.820;2023-05-10T11:06:04;3.30;;;1.17;;
11191;SDS011;5652;48.406;10.820;2023-05-10T11:08:34;1.17;;;1.08;;
11191;SDS011;5652;48.406;10.820;2023-05-10T11:11:10;1.10;;;1.00;;
11191;SDS011;5652;48.406;10.820;2023-05-10T11:13:41;1.10;;;1.00;;
11191;SDS011;5652;48.406;10.820;2023-05-10T11:16:15;3.85;;;1.20;;
11191;SDS011;5652;48.406;10.820;2023-05-10T11:18:53;1.02;;;1.00;;
11191;SDS011;5652;48.406;10.820;2023-05-10T11:21:20;1.10;;;1.00;;
11191;SDS011;5652;48.406;10.820;2023-05-10T11:23:48;1.83;;;0.93;;
11191;SDS011;5652;48.406;10.820;2023-05-10T11:26:17;5.18;;;1.00;;
11191;SDS011;5652;48.406;10.820;2023-05-10T11:28:48;1.47;;;1.00;;
11191;SDS011;5652;48.406;10.820;2023-05-10T11:31:16;0.80;;;0.80;;
11191;SDS011;5652;48.406;10.820;2023-05-10T11:33:44;1.60;;;1.00;;
11191;SDS011;5652;48.406;10.820;2023-05-10T11:36:11;2.45;;;1.20;;
11191;SDS011;5652;48.406;10.820;2023-05-10T11:38:39;3.10;;;0.68;;
11191;SDS011;5652;48.406;10.820;2023-05-10T11:41:07;0.30;;;0.30;;
11191;SDS011;5652;48.406;10.820;2023-05-10T11:43:37;0.20;;;0.20;;
11191;SDS011;5652;48.406;10.820;2023-05-10T11:46:06;0.20;;;0.20;;
11191;SDS011;5652;48.406;10.820;2023-05-10T11:48:34;0.20;;;0.20;;
11191;SDS011;5652;48.406;10.820;2023-05-10T11:51:01;0.40;;;0.40;;
11191;SDS011;5652;48.406;10.820;2023-05-10T11:53:29;0.20;;;0.20;;
11191;SDS011;5652;48.406;10.820;2023-05-10T11:56:02;0.30;;;0.30;;
11191;SDS011;5652;48.406;10.820;2023-05-10T11:58:30;0.50;;;0.50;;
11191;SDS011;5652;48.406;10.820;2023-05-10T12:00:58;0.20;;;0.20;;
11191;SDS011;5652;48.406;10.820;2023-05-10T12:03:26;0.10;;;0.10;;
11191;SDS011;5652;48.406;10.820;2023-05-10T12:05:53;0.10;;;0.10;;
11191;SDS011;5652;48.406;10.820;2023-05-10T12:08:21;0.30;;;0.30;;
11191;SDS011;5652;48.406;10.820;2023-05-10T12:10:49;0.10;;;0.10;;
11191;SDS011;5652;48.406;10.820;2023-05-10T12:13:16;1.25;;;0.82;;
11191;SDS011;5652;48.406;10.820;2023-05-10T12:15:44;1.63;;;0.80;;
11191;SDS011;5652;48.406;10.820;2023-05-10T12:18:14;1.30;;;0.85;;
11191;SDS011;5652;48.406;10.820;2023-05-10T12:20:49;1.10;;;0.80;;
11191;SDS011;5652;48.406;10.820;2023-05-10T12:23:18;1.92;;;0.90;;
11191;SDS011;5652;48.406;10.820;2023-05-10T12:25:46;0.75;;;0.75;;
11191;SDS011;5652;48.406;10.820;2023-05-10T12:28:14;1.30;;;1.20;;
11191;SDS011;5652;48.406;10.820;2023-05-10T12:30:41;0.70;;;0.70;;
11191;SDS011;5652;48.406;10.820;2023-05-10T12:33:09;0.57;;;0.57;;
11191;SDS011;5652;48.406;10.820;2023-05-10T12:35:44;1.70;;;0.80;;
11191;SDS011;5652;48.406;10.820;2023-05-10T12:38:24;1.77;;;0.50;;
11191;SDS011;5652;48.406;10.820;2023-05-10T12:40:53;2.70;;;0.73;;
11191;SDS011;5652;48.406;10.820;2023-05-10T12:43:20;1.20;;;0.80;;
11191;SDS011;5652;48.406;10.820;2023-05-10T12:45:48;2.85;;;0.88;;
11191;SDS011;5652;48.406;10.820;2023-05-10T12:48:15;0.73;;;0.60;;
11191;SDS011;5652;48.406;10.820;2023-05-10T12:50:46;2.47;;;0.77;;
11191;SDS011;5652;48.406;10.820;2023-05-10T12:53:13;1.30;;;0.80;;
11191;SDS011;5652;48.406;10.820;2023-05-10T12:55:41;0.60;;;0.60;;
11191;SDS011;5652;48.406;10.820;2023-05-10T12:58:08;0.98;;;0.90;;
11191;SDS011;5652;48.406;10.820;2023-05-10T13:00:36;1.40;;;1.20;;
11191;SDS011;5652;48.406;10.820;2023-05-10T13:03:03;1.30;;;1.00;;
11191;SDS011;5652;48.406;10.820;2023-05-10T13:05:31;1.13;;;0.82;;
11191;SDS011;5652;48.406;10.820;2023-05-10T13:08:00;1.30;;;1.00;;
11191;SDS011;5652;48.406;10.820;2023-05-10T13:10:28;1.57;;;0.90;;
11191;SDS011;5652;48.406;10.820;2023-05-10T13:12:56;2.53;;;1.00;;
11191;SDS011;5652;48.406;10.820;2023-05-10T13:15:23;1.10;;;0.80;;
11191;SDS011;5652;48.406;10.820;2023-05-10T13:17:50;1.33;;;1.07;;
11191;SDS011;5652;48.406;10.820;2023-05-10T13:20:18;1.20;;;1.10;;
11191;SDS011;5652;48.406;10.820;2023-05-10T13:22:45;2.40;;;0.97;;
11191;SDS011;5652;48.406;10.820;2023-05-10T13:25:14;1.42;;;1.02;;
11191;SDS011;5652;48.406;10.820;2023-05-10T13:27:41;1.30;;;1.05;;
11191;SDS011;5652;48.406;10.820;2023-05-10T13:30:08;0.95;;;0.90;;
11191;SDS011;5652;48.406;10.820;2023-05-10T13:32:36;1.30;;;1.00;;
11191;SDS011;5652;48.406;10.820;2023-05-10T13:35:04;1.52;;;1.00;;
11191;SDS011;5652;48.406;10.820;2023-05-10T13:37:32;2.60;;;0.90;;
11191;SDS011;5652;48.406;10.820;2023-05-10T13:40:02;2.72;;;1.02;;
11191;SDS011;5652;48.406;10.820;2023-05-10T13:42:31;1.00;;;0.90;;
11191;SDS011;5652;48.406;10.820;2023-05-10T13:44:59;0.85;;;0.82;;
11191;SDS011;5652;48.406;10.820;2023-05-10T13:47:26;1.93;;;1.80;;
11191;SDS011;5652;48.406;10.820;2023-05-10T13:49:54;2.38;;;1.05;;
11191;SDS011;5652;48.406;10.820;2023-05-10T13:52:21;0.88;;;0.82;;
11191;SDS011;5652;48.406;10.820;2023-05-10T13:54:48;0.80;;;0.80;;
11191;SDS011;5652;48.406;10.820;2023-05-10T13:57:17;1.00;;;0.90;;
11191;SDS011;5652;48.406;10.820;2023-05-10T13:59:45;1.10;;;1.00;;
11191;SDS011;5652;48.406;10.820;2023-05-10T14:02:13;0.70;;;0.70;;
11191;SDS011;5652;48.406;10.820;2023-05-10T14:04:40;0.60;;;0.55;;
11191;SDS011;5652;48.406;10.820;2023-05-10T14:07:07;0.73;;;0.60;;
11191;SDS011;5652;48.406;10.820;2023-05-10T14:09:34;0.70;;;0.70;;
11191;SDS011;5652;48.406;10.820;2023-05-10T14:12:01;0.60;;;0.60;;
11191;SDS011;5652;48.406;10.820;2023-05-10T14:14:29;0.57;;;0.57;;
11191;SDS011;5652;48.406;10.820;2023-05-10T14:16:57;0.80;;;0.70;;
11191;SDS011;5652;48.406;10.820;2023-05-10T14:19:24;1.00;;;0.60;;
11191;SDS011;5652;48.406;10.820;2023-05-10T14:21:52;1.13;;;0.77;;
11191;SDS011;5652;48.406;10.820;2023-05-10T14:24:23;1.92;;;0.80;;
11191;SDS011;5652;48.406;10.820;2023-05-10T14:26:53;1.85;;;0.73;;
11191;SDS011;5652;48.406;10.820;2023-05-10T14:29:20;1.20;;;1.00;;
11191;SDS011;5652;48.406;10.820;2023-05-10T14:31:48;0.80;;;0.80;;
11191;SDS011;5652;48.406;10.820;2023-05-10T14:34:18;3.47;;;0.75;;
11191;SDS011;5652;48.406;10.820;2023-05-10T14:36:46;0.95;;;0.90;;
11191;SDS011;5652;48.406;10.820;2023-05-10T14:39:13;2.85;;;1.00;;
11191;SDS011;5652;48.406;10.820;2023-05-10T14:41:40;3.92;;;1.13;;
11191;SDS011;5652;48.406;10.820;2023-05-10T14:44:09;3.83;;;1.35;;
11191;SDS011;5652;48.406;10.820;2023-05-10T14:46:36;1.90;;;1.60;;
11191;SDS011;5652;48.406;10.820;2023-05-10T14:49:04;2.75;;;1.52;;
11191;SDS011;5652;48.406;10.820;2023-05-10T14:51:33;2.40;;;1.20;;
11191;SDS011;5652;48.406;10.820;2023-05-10T14:54:01;1.27;;;1.00;;
11191;SDS011;5652;48.406;10.820;2023-05-10T14:56:29;1.42;;;1.30;;